.
WxDataArchive / Data Records for 2015-01-30
2015-01-29 January 2015 2015-01-31

Data Records for Friday, 30 January 2015

Time	Temp	Chill	HIndex	Humid	Dewpt	 Wind 	HiWind	WindDir	Rain 	Barom
-----	----	-----	------	-----	-----	------	------	-------	-----	-----
00:00	32.1	32.1	32.1	84	27.8	1	4	270	0.00	30.142 
00:05	32.2	32.2	32.2	84	27.9	1	5	270	0.00	30.142 
00:10	32.2	32.2	32.2	83	27.6	1	5	315	0.00	30.142 
00:15	32.2	32.2	32.2	82	27.3	3	9	270	0.00	30.152 
00:20	32.2	32.2	32.2	81	27.0	2	4	270	0.00	30.152 
00:25	31.9	31.9	31.9	79	26.1	3	8	270	0.00	30.152 
00:30	31.8	31.8	31.8	78	25.7	3	9	292	0.00	30.159 
00:35	31.6	31.6	31.6	77	25.2	3	8	338	0.00	30.159 
00:40	31.5	31.5	31.5	77	25.1	2	4	292	0.00	30.159 
00:45	31.5	31.5	31.5	76	24.8	2	5	315	0.00	30.160 
00:50	31.5	31.5	31.5	75	24.5	2	11	315	0.00	30.160 
00:55	31.3	31.3	31.3	74	24.0	2	7	292	0.00	30.160 
01:00	31.3	31.3	31.3	73	23.7	2	5	338	0.00	30.166 
01:05	31.3	31.3	31.3	72	23.3	3	7	292	0.00	30.166 
01:10	31.5	31.5	31.5	71	23.2	2	6	292	0.00	30.166 
01:15	31.3	31.3	31.3	70	22.7	3	6	338	0.00	30.171 
01:20	31.3	31.3	31.3	70	22.7	2	7	315	0.00	30.171 
01:25	31.3	31.3	31.3	69	22.3	2	10	292	0.00	30.171 
01:30	31.2	27.2	31.2	67	21.5	4	8	315	0.00	30.177 
01:35	31.0	26.9	31.0	66	21.0	4	11	0	0.00	30.177 
01:40	30.7	26.6	30.7	65	20.3	4	9	0	0.00	30.177 
01:45	30.6	30.6	30.6	65	20.3	3	7	338	0.00	30.184 
01:50	30.4	26.2	30.4	66	20.4	4	10	338	0.00	30.184 
01:55	30.3	26.1	30.3	66	20.3	4	10	292	0.00	30.184 
02:00	30.1	30.1	30.1	66	20.1	2	7	292	0.00	30.195 
02:05	30.1	30.1	30.1	68	20.8	3	6	338	0.00	30.195 
02:10	29.8	29.8	29.8	71	21.6	3	9	338	0.00	30.195 
02:15	29.1	29.1	29.1	73	21.5	3	7	0	0.00	30.203 
02:20	28.7	28.7	28.7	76	22.1	2	5	338	0.00	30.203 
02:25	28.2	23.7	28.2	76	21.6	4	11	338	0.00	30.203 
02:30	28.1	28.1	28.1	76	21.5	2	7	338	0.00	30.224 
02:35	27.8	23.2	27.8	73	20.3	4	10	338	0.00	30.224 
02:40	27.5	27.5	27.5	69	18.7	3	7	338	0.00	30.224 
02:45	27.3	27.3	27.3	67	17.8	3	9	315	0.00	30.240 
02:50	26.9	21.1	26.9	62	15.6	5	14	315	0.00	30.240 
02:55	26.6	20.7	26.6	61	15.0	5	12	315	0.00	30.240 
03:00	26.4	20.5	26.4	60	14.4	5	12	292	0.00	30.249 
03:05	26.1	26.1	26.1	62	14.9	3	9	292	0.00	30.249 
03:10	26.0	21.1	26.0	62	14.8	4	10	270	0.00	30.249 
03:15	25.7	25.7	25.7	61	14.1	3	10	292	0.00	30.261 
03:20	25.6	25.6	25.6	61	14.0	2	6	270	0.00	30.261 
03:25	25.3	25.3	25.3	59	13.0	3	8	315	0.00	30.261 
03:30	25.1	20.1	25.1	58	12.4	4	9	292	0.00	30.265 
03:35	25.0	25.0	25.0	58	12.3	2	5	315	0.00	30.265 
03:40	24.8	24.8	24.8	58	12.1	2	9	0	0.00	30.265 
03:45	24.5	24.5	24.5	58	11.9	3	8	315	0.00	30.279 
03:50	24.2	24.2	24.2	58	11.6	3	7	292	0.00	30.279 
03:55	24.1	24.1	24.1	59	11.9	3	5	338	0.00	30.279 
04:00	23.6	23.6	23.6	59	11.4	3	12	338	0.00	30.285 
04:05	23.3	23.3	23.3	60	11.5	2	5	292	0.00	30.285 
04:10	23.0	23.0	23.0	60	11.2	1	7	338	0.00	30.285 
04:15	22.7	22.7	22.7	61	11.3	2	6	338	0.00	30.299 
04:20	22.5	22.5	22.5	61	11.1	2	6	315	0.00	30.299 
04:25	22.4	22.4	22.4	60	10.6	3	7	292	0.00	30.299 
04:30	22.2	22.2	22.2	61	10.8	2	9	315	0.00	30.309 
04:35	22.2	22.2	22.2	61	10.8	2	7	292	0.00	30.309 
04:40	22.1	22.1	22.1	61	10.7	2	6	315	0.00	30.309 
04:45	21.9	21.9	21.9	61	10.5	1	5	292	0.00	30.317 
04:50	21.8	21.8	21.8	62	10.8	2	7	315	0.00	30.317 
04:55	21.8	21.8	21.8	62	10.8	3	6	270	0.00	30.317 
05:00	21.6	21.6	21.6	62	10.6	2	7	338	0.00	30.324 
05:05	21.6	21.6	21.6	62	10.6	2	5	338	0.00	30.324 
05:10	21.6	21.6	21.6	61	10.3	3	9	338	0.00	30.324 
05:15	21.4	21.4	21.4	61	10.1	2	7	292	0.00	30.330 
05:20	21.4	21.4	21.4	61	10.1	3	7	338	0.00	30.330 
05:25	21.3	21.3	21.3	61	10.0	3	15	0	0.00	30.330 
05:30	21.3	21.3	21.3	60	9.6	3	10	338	0.00	30.339 
05:35	21.3	21.3	21.3	60	9.6	3	7	315	0.00	30.339 
05:40	21.3	21.3	21.3	60	9.6	2	6	338	0.00	30.339 
05:45	21.1	21.1	21.1	60	9.4	2	6	292	0.00	30.349 
05:50	21.1	21.1	21.1	60	9.4	1	5	0	0.00	30.349 
05:55	21.0	21.0	21.0	60	9.3	2	6	338	0.00	30.349 
06:00	21.0	21.0	21.0	60	9.3	2	10	292	0.00	30.354 
06:05	20.8	20.8	20.8	60	9.1	2	6	315	0.00	30.354 
06:10	20.8	20.8	20.8	60	9.1	1	4	338	0.00	30.354 
06:15	20.6	20.6	20.6	60	8.9	1	4	292	0.00	30.363 
06:20	20.6	20.6	20.6	59	8.6	2	6	338	0.00	30.363 
06:25	20.6	20.6	20.6	59	8.6	1	4	270	0.00	30.363 
06:30	20.5	20.5	20.5	59	8.5	2	6	338	0.00	30.366 
06:35	20.5	20.5	20.5	59	8.5	1	3	315	0.00	30.366 
06:40	20.5	20.5	20.5	59	8.5	1	5	338	0.00	30.366 
06:45	20.5	20.5	20.5	59	8.5	1	4	315	0.00	30.378 
06:50	20.3	20.3	20.3	59	8.3	1	3	315	0.00	30.378 
06:55	20.3	20.3	20.3	59	8.3	1	7	315	0.00	30.378 
07:00	20.2	20.2	20.2	59	8.2	1	3	315	0.00	30.384 
07:05	20.2	20.2	20.2	58	7.8	1	4	338	0.00	30.384 
07:10	20.3	20.3	20.3	58	7.9	2	5	292	0.00	30.384 
07:15	20.2	20.2	20.2	58	7.8	1	5	292	0.00	30.397 
07:20	20.2	20.2	20.2	58	7.8	1	4	292	0.00	30.397 
07:25	20.2	20.2	20.2	58	7.8	1	5	0	0.00	30.397 
07:30	20.2	20.2	20.2	58	7.8	2	6	270	0.00	30.407 
07:35	20.2	20.2	20.2	58	7.8	3	7	315	0.00	30.407 
07:40	20.2	20.2	20.2	58	7.8	2	6	315	0.00	30.407 
07:45	20.2	20.2	20.2	58	7.8	1	5	292	0.00	30.416 
07:50	20.0	20.0	20.0	58	7.6	1	5	270	0.00	30.416 
07:55	20.0	20.0	20.0	58	7.6	2	5	338	0.00	30.416 
08:00	20.0	20.0	20.0	58	7.6	1	6	270	0.00	30.425 
08:05	20.0	20.0	20.0	58	7.6	2	6	338	0.00	30.425 
08:10	20.0	20.0	20.0	58	7.6	2	6	292	0.00	30.425 
08:15	20.0	20.0	20.0	58	7.6	1	5	338	0.00	30.429 
08:20	20.2	20.2	20.2	58	7.8	1	3	315	0.00	30.429 
08:25	20.2	20.2	20.2	58	7.8	2	5	338	0.00	30.429 
08:30	20.3	20.3	20.3	54	6.3	2	5	338	0.00	30.433 
08:35	20.5	20.5	20.5	58	8.1	1	6	315	0.00	30.433 
08:40	20.5	20.5	20.5	58	8.1	1	3	292	0.00	30.433 
08:45	20.6	20.6	20.6	58	8.2	1	4	292	0.00	30.439 
08:50	20.6	20.6	20.6	57	7.8	1	4	338	0.00	30.439 
08:55	20.8	20.8	20.8	56	7.6	2	6	338	0.00	30.439 
09:00	21.0	21.0	21.0	56	7.8	2	7	338	0.00	30.445 
09:05	21.1	21.1	21.1	57	8.3	2	6	338	0.00	30.445 
09:10	21.1	21.1	21.1	55	7.5	3	14	0	0.00	30.445 
09:15	21.1	21.1	21.1	54	7.1	3	7	292	0.00	30.450 
09:20	21.3	21.3	21.3	54	7.3	3	7	338	0.00	30.450 
09:25	21.3	21.3	21.3	54	7.3	3	10	0	0.00	30.450 
09:30	21.4	21.4	21.4	54	7.4	3	11	338	0.00	30.461 
09:35	21.6	21.6	21.6	55	8.0	2	6	315	0.00	30.461 
09:40	21.6	21.6	21.6	55	8.0	2	6	338	0.00	30.461 
09:45	21.6	21.6	21.6	55	8.0	2	6	338	0.00	30.463 
09:50	21.6	21.6	21.6	55	8.0	2	7	338	0.00	30.463 
09:55	21.8	21.8	21.8	55	8.1	2	5	338	0.00	30.463 
10:00	21.8	21.8	21.8	55	8.1	2	7	292	0.00	30.471 
10:05	21.8	21.8	21.8	54	7.7	3	9	315	0.00	30.471 
10:10	21.8	21.8	21.8	54	7.7	2	9	338	0.00	30.471 
10:15	21.9	21.9	21.9	54	7.8	2	5	338	0.00	30.475 
10:20	22.1	22.1	22.1	56	8.8	2	5	338	0.00	30.475 
10:25	22.1	22.1	22.1	56	8.8	1	6	338	0.00	30.475 
10:30	22.2	22.2	22.2	55	8.5	1	4	315	0.00	30.478 
10:35	22.1	22.1	22.1	54	8.0	2	6	315	0.00	30.478 
10:40	22.1	22.1	22.1	55	8.4	1	5	270	0.00	30.478 
10:45	22.2	22.2	22.2	55	8.5	2	5	338	0.00	30.487 
10:50	22.1	22.1	22.1	55	8.4	2	6	270	0.00	30.487 
10:55	22.4	22.4	22.4	56	9.1	1	4	270	0.00	30.487 
11:00	22.4	22.4	22.4	57	9.5	1	4	292	0.00	30.489 
11:05	22.5	22.5	22.5	58	10.0	1	4	0	0.00	30.489 
11:10	22.5	22.5	22.5	58	10.0	1	4	0	0.00	30.489 
11:15	22.5	22.5	22.5	58	10.0	1	5	0	0.00	30.491 
11:20	22.7	22.7	22.7	58	10.2	1	6	292	0.00	30.491 
11:25	22.4	22.4	22.4	58	9.9	2	6	270	0.00	30.491 
11:30	22.4	22.4	22.4	58	9.9	1	4	270	0.00	30.492 
11:35	22.4	22.4	22.4	57	9.5	1	3	270	0.00	30.492 
11:40	22.9	22.9	22.9	57	10.0	1	4	270	0.00	30.492 
11:45	23.0	23.0	23.0	55	9.3	2	7	338	0.00	30.492 
11:50	23.2	23.2	23.2	55	9.5	1	4	338	0.00	30.492 
11:55	23.2	23.2	23.2	54	9.1	2	4	270	0.00	30.492 
12:00	23.0	23.0	23.0	54	8.9	1	5	292	0.00	30.487 
12:05	23.3	23.3	23.3	54	9.1	1	4	270	0.00	30.487 
12:10	23.3	23.3	23.3	53	8.7	2	6	292	0.00	30.487 
12:15	23.3	23.3	23.3	53	8.7	1	4	270	0.00	30.486 
12:20	23.6	23.6	23.6	53	9.0	0	3	292	0.00	30.486 
12:25	23.8	23.8	23.8	52	8.8	1	3	292	0.00	30.486 
12:30	23.8	23.8	23.8	53	9.2	0	3	292	0.00	30.477 
12:35	23.9	23.9	23.9	52	8.9	1	5	0	0.00	30.477 
12:40	23.8	23.8	23.8	53	9.2	1	4	292	0.00	30.477 
12:45	23.6	23.6	23.6	53	9.0	0	2	292	0.00	30.476 
12:50	24.1	24.1	24.1	54	9.9	0	3	292	0.00	30.476 
12:55	24.4	24.4	24.4	55	10.6	1	2	292	0.00	30.476 
13:00	24.2	24.2	24.2	54	10.0	2	5	292	0.00	30.475 
13:05	24.2	24.2	24.2	54	10.0	1	3	292	0.00	30.475 
13:10	24.4	24.4	24.4	54	10.2	0	2	292	0.00	30.475 
13:15	24.7	24.7	24.7	54	10.5	1	6	292	0.00	30.477 
13:20	24.2	24.2	24.2	54	10.0	1	4	292	0.00	30.477 
13:25	23.8	23.8	23.8	52	8.8	1	4	292	0.00	30.477 
13:30	23.5	23.5	23.5	52	8.5	1	4	270	0.00	30.473 
13:35	23.5	23.5	23.5	52	8.5	0	2	270	0.00	30.473 
13:40	24.1	24.1	24.1	53	9.5	1	4	270	0.00	30.473 
13:45	24.5	24.5	24.5	52	9.4	1	4	292	0.00	30.469 
13:50	24.7	24.7	24.7	51	9.2	1	3	292	0.00	30.469 
13:55	24.7	24.7	24.7	51	9.2	2	5	315	0.00	30.469 
14:00	24.5	24.5	24.5	51	9.0	1	3	292	0.00	30.466 
14:05	24.4	24.4	24.4	52	9.3	0	3	292	0.00	30.466 
14:10	24.7	24.7	24.7	53	10.0	0	2	292	0.00	30.466 
14:15	24.8	24.8	24.8	53	10.1	1	4	338	0.00	30.469 
14:20	25.0	25.0	25.0	52	9.9	1	4	338	0.00	30.469 
14:25	25.0	25.0	25.0	52	9.9	1	5	315	0.00	30.469 
14:30	24.7	24.7	24.7	52	9.6	2	5	292	0.00	30.466 
14:35	24.4	24.4	24.4	53	9.8	1	5	292	0.00	30.466 
14:40	24.4	24.4	24.4	53	9.8	0	3	270	0.00	30.466 
14:45	24.8	24.8	24.8	53	10.1	1	4	270	0.00	30.463 
14:50	25.1	25.1	25.1	52	10.0	1	4	292	0.00	30.463 
14:55	25.1	25.1	25.1	52	10.0	1	3	292	0.00	30.463 
15:00	25.4	25.4	25.4	50	9.4	1	3	292	0.00	30.468 
15:05	25.3	25.3	25.3	50	9.3	1	4	338	0.00	30.468 
15:10	25.6	25.6	25.6	52	10.4	1	4	315	0.00	30.468 
15:15	25.8	25.8	25.8	50	9.8	1	3	292	0.00	30.465 
15:20	25.7	25.7	25.7	50	9.7	1	3	315	0.00	30.465 
15:25	25.6	25.6	25.6	50	9.6	1	4	315	0.00	30.465 
15:30	25.7	25.7	25.7	50	9.7	1	3	315	0.00	30.467 
15:35	25.6	25.6	25.6	50	9.6	1	3	315	0.00	30.467 
15:40	25.6	25.6	25.6	50	9.6	1	4	315	0.00	30.467 
15:45	25.4	25.4	25.4	50	9.4	1	4	292	0.00	30.467 
15:50	25.3	25.3	25.3	51	9.7	1	4	292	0.00	30.467 
15:55	25.1	25.1	25.1	51	9.5	1	4	315	0.00	30.467 
16:00	25.4	25.4	25.4	53	10.7	1	3	315	0.00	30.468 
16:05	25.8	25.8	25.8	52	10.6	0	3	315	0.00	30.468 
16:10	26.0	26.0	26.0	53	11.2	0	2	315	0.00	30.468 
16:15	26.3	26.3	26.3	52	11.1	1	4	292	0.00	30.466 
16:20	26.0	26.0	26.0	52	10.8	1	3	292	0.00	30.466 
16:25	25.8	25.8	25.8	52	10.6	0	2	292	0.00	30.466 
16:30	25.8	25.8	25.8	52	10.6	0	3	292	0.00	30.466 
16:35	25.4	25.4	25.4	52	10.3	1	4	292	0.00	30.466 
16:40	25.3	25.3	25.3	53	10.6	0	3	292	0.00	30.466 
16:45	25.4	25.4	25.4	54	11.1	0	3	292	0.00	30.468 
16:50	25.4	25.4	25.4	53	10.7	0	2	292	0.00	30.468 
16:55	25.3	25.3	25.3	52	10.2	1	3	292	0.00	30.468 
17:00	25.1	25.1	25.1	53	10.4	0	2	292	0.00	30.466 
17:05	25.0	25.0	25.0	54	10.7	0	3	292	0.00	30.466 
17:10	24.8	24.8	24.8	55	11.0	0	1	292	0.00	30.466 
17:15	24.5	24.5	24.5	55	10.7	0	2	292	0.00	30.466 
17:20	24.4	24.4	24.4	55	10.6	0	2	292	0.00	30.466 
17:25	24.4	24.4	24.4	55	10.6	0	2	292	0.00	30.466 
17:30	24.2	24.2	24.2	55	10.4	0	2	292	0.00	30.464 
17:35	24.2	24.2	24.2	56	10.8	0	1	292	0.00	30.464 
17:40	24.1	24.1	24.1	56	10.7	0	1	292	0.00	30.464 
17:45	23.8	23.8	23.8	56	10.4	0	3	292	0.00	30.467 
17:50	23.6	23.6	23.6	57	10.6	0	2	292	0.00	30.467 
17:55	23.5	23.5	23.5	58	10.9	0	1	292	0.00	30.467 
18:00	23.3	23.3	23.3	59	11.1	0	1	292	0.00	30.467 
18:05	23.2	23.2	23.2	59	11.0	0	2	292	0.00	30.467 
18:10	23.0	23.0	23.0	60	11.2	0	2	292	0.00	30.467 
18:15	22.9	22.9	22.9	60	11.1	0	1	292	0.00	30.467 
18:20	22.7	22.7	22.7	61	11.3	0	0	---	0.00	30.467 
18:25	22.5	22.5	22.5	62	11.5	0	0	---	0.00	30.467 
18:30	22.4	22.4	22.4	62	11.4	0	0	---	0.00	30.467 
18:35	22.2	22.2	22.2	62	11.2	0	1	292	0.00	30.467 
18:40	22.2	22.2	22.2	63	11.6	0	0	---	0.00	30.467 
18:45	22.1	22.1	22.1	63	11.5	0	0	---	0.00	30.470 
18:50	21.9	21.9	21.9	63	11.3	0	0	---	0.00	30.470 
18:55	21.8	21.8	21.8	64	11.5	0	0	---	0.00	30.470 
19:00	21.8	21.8	21.8	64	11.5	0	0	---	0.00	30.470 
19:05	21.6	21.6	21.6	65	11.7	0	0	---	0.00	30.470 
19:10	21.4	21.4	21.4	65	11.5	0	0	---	0.00	30.470 
19:15	21.3	21.3	21.3	65	11.4	0	0	---	0.00	30.472 
19:20	21.1	21.1	21.1	66	11.5	0	0	---	0.00	30.472 
19:25	21.1	21.1	21.1	66	11.5	0	0	---	0.00	30.472 
19:30	21.0	21.0	21.0	66	11.5	0	0	---	0.00	30.471 
19:35	21.0	21.0	21.0	67	11.8	0	0	---	0.00	30.471 
19:40	21.0	21.0	21.0	68	12.1	0	0	---	0.00	30.471 
19:45	21.1	21.1	21.1	68	12.2	0	0	---	0.00	30.464 
19:50	21.3	21.3	21.3	68	12.4	0	0	---	0.00	30.464 
19:55	21.4	21.4	21.4	68	12.5	0	0	---	0.00	30.464 
20:00	21.4	21.4	21.4	68	12.5	0	0	---	0.00	30.465 
20:05	21.6	21.6	21.6	68	12.7	0	0	---	0.00	30.465 
20:10	21.6	21.6	21.6	68	12.7	0	0	---	0.00	30.465 
20:15	21.4	21.4	21.4	68	12.5	0	0	---	0.00	30.456 
20:20	21.4	21.4	21.4	68	12.5	0	0	---	0.00	30.456 
20:25	21.3	21.3	21.3	68	12.4	0	0	---	0.00	30.456 
20:30	21.1	21.1	21.1	68	12.2	0	0	---	0.00	30.456 
20:35	21.0	21.0	21.0	69	12.5	0	0	---	0.00	30.456 
20:40	20.6	20.6	20.6	69	12.1	0	0	---	0.00	30.456 
20:45	20.5	20.5	20.5	70	12.3	0	0	---	0.00	30.466 
20:50	20.3	20.3	20.3	70	12.1	0	0	---	0.00	30.466 
20:55	20.2	20.2	20.2	71	12.3	0	0	---	0.00	30.466 
21:00	20.0	20.0	20.0	71	12.1	0	0	---	0.00	30.459 
21:05	19.7	19.7	19.7	71	11.8	0	0	---	0.00	30.459 
21:10	19.4	19.4	19.4	71	11.6	0	0	---	0.00	30.459 
21:15	19.2	19.2	19.2	72	11.7	0	0	---	0.00	30.456 
21:20	18.9	18.9	18.9	73	11.7	0	0	---	0.00	30.456 
21:25	18.6	18.6	18.6	74	11.7	0	0	---	0.00	30.456 
21:30	18.6	18.6	18.6	75	12.0	0	0	---	0.00	30.449 
21:35	18.4	18.4	18.4	76	12.1	0	0	---	0.00	30.449 
21:40	18.6	18.6	18.6	76	12.3	0	0	---	0.00	30.449 
21:45	18.6	18.6	18.6	77	12.6	0	0	---	0.00	30.456 
21:50	18.6	18.6	18.6	77	12.6	0	0	---	0.00	30.456 
21:55	18.6	18.6	18.6	77	12.6	0	0	---	0.00	30.456 
22:00	18.6	18.6	18.6	77	12.6	0	0	---	0.00	30.458 
22:05	18.4	18.4	18.4	77	12.4	0	0	---	0.00	30.458 
22:10	18.3	18.3	18.3	78	12.6	0	0	---	0.00	30.458 
22:15	18.3	18.3	18.3	78	12.6	0	0	---	0.00	30.460 
22:20	18.1	18.1	18.1	78	12.4	0	0	---	0.00	30.460 
22:25	17.8	17.8	17.8	79	12.4	0	0	---	0.00	30.460 
22:30	17.8	17.8	17.8	79	12.4	0	0	---	0.00	30.447 
22:35	17.7	17.7	17.7	79	12.3	0	0	---	0.00	30.447 
22:40	17.5	17.5	17.5	79	12.1	0	0	---	0.00	30.447 
22:45	17.2	17.2	17.2	79	11.8	0	0	---	0.00	30.445 
22:50	17.2	17.2	17.2	79	11.8	0	0	---	0.00	30.445 
22:55	17.0	17.0	17.0	80	11.9	0	0	---	0.00	30.445 
23:00	16.9	16.9	16.9	80	11.8	0	0	---	0.00	30.441 
23:05	16.7	16.7	16.7	81	11.9	0	0	---	0.00	30.441 
23:10	16.7	16.7	16.7	81	11.9	0	0	---	0.00	30.441 
23:15	16.5	16.5	16.5	81	11.7	0	0	---	0.00	30.435 
23:20	16.4	16.4	16.4	81	11.6	0	0	---	0.00	30.435 
23:25	16.2	16.2	16.2	81	11.4	0	0	---	0.00	30.435 
23:30	16.1	16.1	16.1	81	11.3	0	0	---	0.00	30.436 
23:35	15.9	15.9	15.9	81	11.1	0	0	---	0.00	30.436 
23:40	15.7	15.7	15.7	81	10.9	0	0	---	0.00	30.436 
23:45	15.6	15.6	15.6	82	11.1	0	0	---	0.00	30.432 
23:50	15.6	15.6	15.6	82	11.1	0	0	---	0.00	30.432 
23:55	15.4	15.4	15.4	82	10.9	0	0	---	0.00	30.432 

CoCoRaHS
IN-AL-39
A2 Web Hosting
Creative Commons License
GoDaddy
search engine by freefind advanced

loaded 2018-11-21 00:30:59 • last modified 2010-11-18 10:43:29
Privacy PolicyDisclaimer
• wx.awcolley.com is powered by PmWiki v.2002016 •
• all content (unless otherwise noted) © 2018 A W Colley